Time;durP1;ratioP1;P1;durP2;ratioP2;P2;SDS_P1;SDS_P2;PMS_P1;PMS_P2;Temp;Humidity;BMP_temperature;BMP_pressure;BME280_temperature;BME280_humidity;BME280_pressure;Samples;Min_cycle;Max_cycle;Signal;HPM_P1;HPM_P2
2023/09/04 00:01:03;;;;;;;5.55;4.75;;;14.50;99.90;;;;;;5029907;28;20017;-75
2023/09/04 00:03:29;;;;;;;7.95;5.15;;;14.40;99.90;;;;;;5030108;28;20104;-75
2023/09/04 00:05:55;;;;;;;7.05;5.28;;;14.40;99.90;;;;;;5030053;28;20029;-75
2023/09/04 00:08:21;;;;;;;4.85;4.38;;;14.40;99.90;;;;;;5030119;28;20037;-75
2023/09/04 00:10:47;;;;;;;6.82;5.05;;;14.30;99.90;;;;;;5030243;28;20060;-75
2023/09/04 00:13:13;;;;;;;8.38;4.85;;;14.30;99.90;;;;;;5029467;28;20061;-75
2023/09/04 00:15:39;;;;;;;9.80;5.15;;;14.20;99.90;;;;;;5030192;28;20017;-75
2023/09/04 00:18:06;;;;;;;6.53;5.18;;;14.20;99.90;;;;;;5025814;28;20047;-74
2023/09/04 00:20:31;;;;;;;6.07;5.07;;;14.20;99.90;;;;;;5030736;28;20375;-74
2023/09/04 00:22:57;;;;;;;9.82;5.63;;;14.20;99.90;;;;;;5031139;28;20025;-75
2023/09/04 00:25:22;;;;;;;7.90;5.90;;;14.10;99.90;;;;;;5030049;28;20026;-75
2023/09/04 00:27:48;;;;;;;6.07;5.38;;;14.10;99.90;;;;;;5030527;28;20452;-75
2023/09/04 00:30:14;;;;;;;5.95;5.22;;;14.10;99.90;;;;;;5030407;28;20026;-75
2023/09/04 00:32:39;;;;;;;7.28;5.55;;;14.00;99.90;;;;;;5028657;28;20403;-76
2023/09/04 00:35:06;;;;;;;6.32;5.30;;;14.00;99.90;;;;;;5029835;28;20037;-75
2023/09/04 00:37:32;;;;;;;6.03;5.43;;;14.00;99.90;;;;;;5029725;28;20060;-75
2023/09/04 00:39:57;;;;;;;7.03;5.70;;;13.90;99.90;;;;;;5029578;28;20096;-75
2023/09/04 00:42:23;;;;;;;8.63;5.75;;;13.90;99.90;;;;;;5028967;28;20021;-75
2023/09/04 00:44:50;;;;;;;8.82;6.40;;;13.90;99.90;;;;;;5029807;28;20372;-74
2023/09/04 00:47:17;;;;;;;7.18;5.90;;;13.90;99.90;;;;;;5029588;28;20469;-75
2023/09/04 00:49:45;;;;;;;8.48;6.03;;;13.90;99.90;;;;;;5022652;28;20075;-75
2023/09/04 00:52:11;;;;;;;8.55;6.28;;;13.90;99.90;;;;;;5023774;28;20085;-75
2023/09/04 00:54:37;;;;;;;7.00;5.80;;;13.80;99.90;;;;;;5041352;28;20065;-75
2023/09/04 00:57:05;;;;;;;7.07;6.00;;;13.80;99.90;;;;;;5042437;28;20033;-75
2023/09/04 00:59:31;;;;;;;7.13;5.72;;;13.80;99.90;;;;;;5029861;28;20040;-75
2023/09/04 01:02:00;;;;;;;7.03;6.18;;;13.70;99.90;;;;;;5029075;28;20030;-75
2023/09/04 01:04:26;;;;;;;6.80;6.07;;;13.70;99.90;;;;;;5029366;28;20431;-76
2023/09/04 01:06:53;;;;;;;9.82;6.45;;;13.70;99.90;;;;;;5029288;28;20109;-74
2023/09/04 01:09:20;;;;;;;8.77;6.18;;;13.60;99.90;;;;;;5029577;28;20021;-75
2023/09/04 01:12:10;;;;;;;9.80;6.07;;;13.60;99.90;;;;;;5028964;28;20025;-75
2023/09/04 01:14:35;;;;;;;8.80;7.63;;;13.60;99.90;;;;;;5047128;28;20045;-75
2023/09/04 01:17:02;;;;;;;7.25;6.55;;;13.50;99.90;;;;;;5029321;28;20144;-75
2023/09/04 01:19:28;;;;;;;9.50;6.15;;;13.50;99.90;;;;;;5029503;28;20486;-75
2023/09/04 01:21:53;;;;;;;6.43;5.68;;;13.50;99.90;;;;;;5032471;28;20017;-74
2023/09/04 01:24:19;;;;;;;12.68;6.40;;;13.40;99.90;;;;;;5037490;28;20060;-75
2023/09/04 01:27:08;;;;;;;10.57;6.00;;;13.30;99.90;;;;;;5044061;28;20383;-75
2023/09/04 01:29:50;;;;;;;6.00;5.40;;;13.40;99.90;;;;;;5027555;28;20025;-74
2023/09/04 01:32:32;;;;;;;6.82;5.82;;;13.30;99.90;;;;;;5039376;28;20025;-75
2023/09/04 01:34:59;;;;;;;7.55;6.03;;;13.20;99.90;;;;;;5029892;28;20025;-75
2023/09/04 01:37:26;;;;;;;12.43;6.95;;;13.30;99.90;;;;;;5028852;28;20106;-75
2023/09/04 01:39:53;;;;;;;7.25;5.78;;;13.20;99.90;;;;;;5034355;28;20404;-74
2023/09/04 01:42:19;;;;;;;11.07;5.95;;;13.20;99.90;;;;;;5048427;28;20031;-74
2023/09/04 01:44:44;;;;;;;8.98;6.38;;;13.20;99.90;;;;;;5029207;28;20026;-75
2023/09/04 01:47:10;;;;;;;7.82;6.07;;;13.30;99.90;;;;;;5029088;28;20030;-75
2023/09/04 01:49:35;;;;;;;9.05;6.68;;;13.20;99.90;;;;;;5036856;28;20105;-75
2023/09/04 01:52:01;;;;;;;9.18;6.60;;;13.30;99.90;;;;;;5022314;28;20026;-75
2023/09/04 01:54:27;;;;;;;8.00;5.97;;;13.20;99.90;;;;;;5030839;28;20116;-74
2023/09/04 01:56:53;;;;;;;8.15;5.72;;;13.20;99.90;;;;;;5032110;28;20024;-75
2023/09/04 01:59:18;;;;;;;11.60;5.85;;;13.20;99.90;;;;;;5032408;28;20018;-76
2023/09/04 02:01:44;;;;;;;7.88;6.75;;;13.30;99.90;;;;;;5031788;28;20045;-75
2023/09/04 02:04:09;;;;;;;6.93;5.88;;;13.30;99.90;;;;;;5032049;28;20031;-74
2023/09/04 02:06:35;;;;;;;6.43;5.80;;;13.30;99.90;;;;;;5044820;28;20458;-75
2023/09/04 02:09:00;;;;;;;6.25;5.65;;;13.30;99.90;;;;;;5049595;28;20032;-75
2023/09/04 02:11:26;;;;;;;6.07;5.35;;;13.30;99.90;;;;;;5038641;28;20051;-74
2023/09/04 02:13:52;;;;;;;7.75;5.63;;;13.30;99.90;;;;;;5050421;28;20033;-75
2023/09/04 02:16:18;;;;;;;7.43;5.82;;;13.30;99.90;;;;;;5050891;28;20070;-74
2023/09/04 02:18:43;;;;;;;5.90;5.32;;;13.20;99.90;;;;;;5043994;28;20025;-75
2023/09/04 02:21:09;;;;;;;7.32;5.47;;;13.20;99.90;;;;;;5044234;28;20022;-75
2023/09/04 02:23:35;;;;;;;6.65;5.95;;;13.20;99.90;;;;;;5048646;28;20029;-74
2023/09/04 02:26:00;;;;;;;7.95;5.45;;;13.20;99.90;;;;;;5038174;28;20062;-75
2023/09/04 02:28:26;;;;;;;8.15;6.05;;;13.10;99.90;;;;;;5030542;28;20026;-75
2023/09/04 02:30:52;;;;;;;6.93;5.78;;;13.10;99.90;;;;;;5042369;28;20032;-74
2023/09/04 02:33:17;;;;;;;7.60;5.90;;;13.10;99.90;;;;;;5046239;28;20119;-74
2023/09/04 02:35:43;;;;;;;10.52;6.55;;;13.10;99.90;;;;;;5049715;28;20033;-74
2023/09/04 02:38:08;;;;;;;12.10;6.15;;;13.10;99.90;;;;;;5047998;28;20068;-75
2023/09/04 02:40:34;;;;;;;6.78;5.53;;;13.00;99.90;;;;;;5031354;28;20025;-74
2023/09/04 02:43:00;;;;;;;6.53;5.22;;;13.00;99.90;;;;;;5013881;28;20384;-74
2023/09/04 02:45:25;;;;;;;9.30;5.70;;;13.00;99.90;;;;;;5018492;28;20037;-74
2023/09/04 02:47:51;;;;;;;6.85;5.15;;;13.00;99.90;;;;;;5049223;28;20397;-74
2023/09/04 02:50:17;;;;;;;9.32;5.72;;;13.00;99.90;;;;;;5021357;28;20486;-74
2023/09/04 02:52:43;;;;;;;7.40;5.20;;;12.90;99.90;;;;;;5042501;28;20028;-75
2023/09/04 02:55:08;;;;;;;7.85;6.07;;;12.80;99.90;;;;;;5033604;28;20030;-75
2023/09/04 02:57:34;;;;;;;9.10;6.10;;;12.80;99.90;;;;;;5024758;28;20456;-74
2023/09/04 03:00:03;;;;;;;8.52;5.68;;;12.80;99.90;;;;;;5025390;28;20082;-74
2023/09/04 03:02:29;;;;;;;8.77;5.45;;;12.80;99.90;;;;;;5031069;28;20033;-75
2023/09/04 03:04:56;;;;;;;7.50;5.65;;;12.70;99.90;;;;;;5030460;28;20029;-74
2023/09/04 03:07:25;;;;;;;6.57;5.70;;;12.70;99.90;;;;;;5029718;28;20426;-75
2023/09/04 03:09:57;;;;;;;7.50;5.57;;;12.70;99.90;;;;;;5029956;28;20025;-74
2023/09/04 03:12:27;;;;;;;6.07;5.47;;;12.60;99.90;;;;;;5031261;28;20022;-75
2023/09/04 03:14:57;;;;;;;7.78;5.50;;;12.60;99.90;;;;;;5022608;28;20116;-74
2023/09/04 03:17:23;;;;;;;6.95;5.18;;;12.60;99.90;;;;;;5027778;28;20029;-74
2023/09/04 03:19:53;;;;;;;7.30;5.70;;;12.50;99.90;;;;;;5031007;28;20045;-75
2023/09/04 03:22:19;;;;;;;7.03;5.43;;;12.60;99.90;;;;;;5030724;28;20017;-74
2023/09/04 03:24:45;;;;;;;7.22;5.53;;;12.60;99.90;;;;;;5031136;28;20027;-75
2023/09/04 03:27:11;;;;;;;7.72;5.88;;;12.60;99.90;;;;;;5034681;28;20021;-74
2023/09/04 03:29:37;;;;;;;6.50;5.70;;;12.60;99.90;;;;;;5049189;28;20393;-75
2023/09/04 03:32:03;;;;;;;6.43;5.20;;;12.60;99.90;;;;;;5032887;28;20018;-75
2023/09/04 03:34:29;;;;;;;7.82;5.68;;;12.50;99.90;;;;;;5030544;28;20098;-74
2023/09/04 03:36:55;;;;;;;8.90;5.63;;;12.50;99.90;;;;;;5030482;28;20069;-75
2023/09/04 03:39:21;;;;;;;9.30;5.45;;;12.50;99.90;;;;;;5030683;28;20057;-74
2023/09/04 03:41:46;;;;;;;6.88;5.60;;;12.50;99.90;;;;;;5029136;28;20017;-74
2023/09/04 03:44:12;;;;;;;7.00;5.40;;;12.40;99.90;;;;;;5021010;28;20022;-74
2023/09/04 03:46:38;;;;;;;7.20;6.03;;;12.30;99.90;;;;;;5028470;28;20356;-74
2023/09/04 03:49:04;;;;;;;6.50;5.85;;;12.30;99.90;;;;;;5021517;28;20026;-74
2023/09/04 03:51:29;;;;;;;9.63;5.50;;;12.30;99.90;;;;;;5043286;28;20382;-75
2023/09/04 03:53:55;;;;;;;8.68;5.68;;;12.20;99.90;;;;;;5050122;28;20149;-75
2023/09/04 03:56:21;;;;;;;6.13;5.28;;;12.20;99.90;;;;;;5033397;28;20070;-74
2023/09/04 03:58:46;;;;;;;7.72;5.80;;;12.20;99.90;;;;;;5029295;28;20029;-75
2023/09/04 04:01:12;;;;;;;7.70;5.93;;;12.10;99.90;;;;;;5043221;28;20032;-75
2023/09/04 04:03:37;;;;;;;6.43;5.53;;;12.10;99.90;;;;;;5028822;28;20475;-75
2023/09/04 04:06:13;;;;;;;8.05;5.22;;;12.10;99.90;;;;;;5045522;28;20472;-74
2023/09/04 04:08:39;;;;;;;7.25;6.30;;;12.10;99.90;;;;;;5030118;28;20026;-74
2023/09/04 04:11:05;;;;;;;7.35;6.00;;;12.00;99.90;;;;;;5030236;28;20017;-74
2023/09/04 04:13:30;;;;;;;8.85;5.45;;;12.10;99.90;;;;;;5030259;28;20033;-74
2023/09/04 04:15:58;;;;;;;7.95;6.00;;;12.10;99.90;;;;;;5030499;28;20501;-75
2023/09/04 04:18:26;;;;;;;9.27;6.00;;;12.10;99.90;;;;;;5029094;28;20033;-75
2023/09/04 04:20:54;;;;;;;8.45;6.22;;;12.10;99.90;;;;;;5030446;28;20104;-74
2023/09/04 04:23:20;;;;;;;6.82;5.65;;;12.10;99.90;;;;;;5030517;28;20069;-74
2023/09/04 04:25:48;;;;;;;9.60;5.97;;;12.20;99.90;;;;;;5030296;28;20106;-75
2023/09/04 04:28:13;;;;;;;9.75;5.22;;;12.10;99.90;;;;;;5029876;28;20475;-75
2023/09/04 04:30:39;;;;;;;8.23;5.30;;;12.10;99.90;;;;;;5029622;28;20028;-75
2023/09/04 04:33:04;;;;;;;7.43;4.82;;;12.10;99.90;;;;;;5030367;28;20029;-75
2023/09/04 04:35:30;;;;;;;7.30;5.32;;;12.10;99.90;;;;;;5028954;28;20033;-74
2023/09/04 04:37:56;;;;;;;7.82;5.68;;;12.10;99.90;;;;;;5030074;28;20068;-75
2023/09/04 04:40:26;;;;;;;8.65;6.70;;;12.10;99.90;;;;;;5028575;28;20017;-74
2023/09/04 04:42:52;;;;;;;11.35;7.72;;;12.20;99.90;;;;;;5029738;28;20025;-75
2023/09/04 04:45:17;;;;;;;10.18;6.32;;;12.20;99.90;;;;;;5029358;28;20435;-74
2023/09/04 04:47:43;;;;;;;15.35;8.95;;;12.20;99.90;;;;;;5030138;28;20032;-74
2023/09/04 04:50:10;;;;;;;14.02;7.28;;;12.30;99.90;;;;;;5017912;28;20021;-74
2023/09/04 04:52:35;;;;;;;10.27;6.22;;;12.40;99.90;;;;;;5029445;28;20028;-75
2023/09/04 04:55:01;;;;;;;7.65;5.63;;;12.40;99.90;;;;;;5042610;28;20029;-75
2023/09/04 04:57:27;;;;;;;7.60;5.93;;;12.40;99.90;;;;;;5029418;28;20021;-74
2023/09/04 04:59:53;;;;;;;7.45;5.85;;;12.50;99.90;;;;;;5044650;28;20054;-74
2023/09/04 05:02:21;;;;;;;10.40;5.93;;;12.50;99.90;;;;;;5028357;28;20101;-74
2023/09/04 05:04:47;;;;;;;8.50;5.43;;;12.50;99.90;;;;;;5047705;28;20017;-74
2023/09/04 05:07:15;;;;;;;7.70;4.40;;;12.50;99.90;;;;;;5033832;28;20087;-74
2023/09/04 05:09:40;;;;;;;14.50;5.15;;;12.50;99.90;;;;;;5021466;28;20396;-74
2023/09/04 05:12:07;;;;;;;6.88;4.60;;;12.60;99.90;;;;;;5025848;28;20033;-74
2023/09/04 05:14:33;;;;;;;7.97;4.30;;;12.70;99.90;;;;;;5033201;28;20033;-74
2023/09/04 05:16:58;;;;;;;8.13;4.47;;;12.80;99.90;;;;;;5031285;28;20028;-74
2023/09/04 05:19:24;;;;;;;9.25;3.78;;;12.90;99.90;;;;;;5026193;28;20058;-74
2023/09/04 05:21:49;;;;;;;7.38;4.20;;;13.10;99.90;;;;;;5029445;28;20022;-74
2023/09/04 05:24:15;;;;;;;5.18;4.28;;;13.10;99.90;;;;;;5032163;28;20074;-74
2023/09/04 05:26:41;;;;;;;6.80;5.38;;;13.30;99.90;;;;;;5022642;28;20034;-75
2023/09/04 05:29:06;;;;;;;7.65;4.03;;;13.30;99.90;;;;;;5026150;28;20044;-75
2023/09/04 05:31:32;;;;;;;7.97;4.63;;;13.30;99.90;;;;;;5027233;28;20544;-74
2023/09/04 05:33:57;;;;;;;9.88;4.43;;;13.40;99.90;;;;;;5026898;28;20068;-75
2023/09/04 05:36:23;;;;;;;8.40;3.92;;;13.40;99.90;;;;;;5035176;28;20054;-75
2023/09/04 05:38:48;;;;;;;4.80;3.78;;;13.60;99.90;;;;;;5040024;28;20030;-75
2023/09/04 05:41:14;;;;;;;7.05;3.97;;;13.70;99.90;;;;;;5041141;28;20378;-74
2023/09/04 05:43:40;;;;;;;5.63;3.53;;;13.80;99.90;;;;;;5031956;28;20045;-75
2023/09/04 05:46:06;;;;;;;4.97;3.63;;;13.80;99.90;;;;;;5033565;28;20516;-76
2023/09/04 05:48:34;;;;;;;6.85;3.10;;;13.80;99.90;;;;;;5029668;28;20024;-75
2023/09/04 05:51:01;;;;;;;4.50;3.60;;;13.90;99.90;;;;;;5024512;28;20036;-75
2023/09/04 05:53:28;;;;;;;5.30;3.40;;;14.00;99.90;;;;;;5035876;28;20436;-75
2023/09/04 05:56:10;;;;;;;6.22;3.22;;;14.10;99.90;;;;;;5037744;28;20022;-74
2023/09/04 05:58:47;;;;;;;7.63;3.40;;;14.10;99.90;;;;;;5020550;28;20036;-75
2023/09/04 06:01:13;;;;;;;7.30;3.22;;;14.20;99.90;;;;;;5031476;28;20066;-75
2023/09/04 06:03:40;;;;;;;7.05;3.58;;;14.20;99.90;;;;;;5038746;28;20104;-76
2023/09/04 06:06:06;;;;;;;4.78;3.22;;;14.20;99.90;;;;;;5035772;28;20494;-76
2023/09/04 06:08:33;;;;;;;4.80;2.90;;;14.30;99.90;;;;;;5044391;28;20025;-75
2023/09/04 06:10:59;;;;;;;3.80;3.25;;;14.30;99.90;;;;;;5031861;28;20009;-75
2023/09/04 06:13:24;;;;;;;8.75;3.58;;;14.40;99.90;;;;;;5030260;28;20037;-76
2023/09/04 06:15:53;;;;;;;5.30;3.33;;;14.50;99.90;;;;;;5035308;28;20044;-75
2023/09/04 06:18:19;;;;;;;4.93;3.20;;;14.60;99.90;;;;;;5038768;27;20025;-75
2023/09/04 06:20:46;;;;;;;5.85;3.58;;;14.70;99.90;;;;;;5038153;28;20041;-75
2023/09/04 06:23:11;;;;;;;6.97;3.47;;;15.00;99.90;;;;;;5026589;28;20080;-76
2023/09/04 06:25:42;;;;;;;6.47;3.60;;;15.10;99.90;;;;;;5034791;28;20061;-75
2023/09/04 06:28:09;;;;;;;5.22;3.40;;;15.40;99.90;;;;;;5032048;28;20433;-76
2023/09/04 06:30:35;;;;;;;6.28;3.88;;;15.50;99.90;;;;;;5043154;28;20036;-76
2023/09/04 06:33:01;;;;;;;6.15;3.67;;;15.70;99.90;;;;;;5030037;28;20391;-76
2023/09/04 06:35:28;;;;;;;4.40;3.55;;;15.70;99.90;;;;;;5032001;28;20060;-77
2023/09/04 06:37:54;;;;;;;4.65;3.10;;;15.80;99.90;;;;;;5032390;28;20040;-77
2023/09/04 06:40:19;;;;;;;8.77;4.30;;;15.80;99.90;;;;;;5034747;28;20033;-76
2023/09/04 06:42:45;;;;;;;7.65;3.50;;;15.80;99.90;;;;;;5032692;28;20395;-77
2023/09/04 06:45:11;;;;;;;6.78;3.63;;;15.70;99.90;;;;;;5042379;28;20088;-75
2023/09/04 06:47:38;;;;;;;6.40;3.65;;;15.70;99.90;;;;;;5039925;28;20056;-76
2023/09/04 06:50:04;;;;;;;5.10;3.53;;;15.70;99.90;;;;;;5028359;28;20450;-75
2023/09/04 06:52:30;;;;;;;6.88;4.10;;;15.70;99.90;;;;;;5030441;28;20026;-75
2023/09/04 06:54:56;;;;;;;6.47;3.75;;;15.80;99.90;;;;;;5031831;28;20055;-75
2023/09/04 06:57:21;;;;;;;5.32;4.05;;;15.90;99.90;;;;;;5030023;28;20032;-76
2023/09/04 06:59:47;;;;;;;6.97;3.78;;;16.00;99.90;;;;;;5030417;28;20127;-75
2023/09/04 07:02:12;;;;;;;7.05;4.38;;;16.10;99.90;;;;;;5028216;28;20033;-75
2023/09/04 07:04:38;;;;;;;5.38;3.75;;;16.10;99.90;;;;;;5032277;28;20045;-77
2023/09/04 07:07:04;;;;;;;4.88;3.28;;;15.90;99.90;;;;;;5032893;28;20028;-76
2023/09/04 07:09:29;;;;;;;6.30;3.75;;;15.90;99.90;;;;;;5031070;28;20045;-77
2023/09/04 07:11:55;;;;;;;6.20;3.88;;;15.80;99.90;;;;;;5030009;28;20036;-77
2023/09/04 07:14:20;;;;;;;6.40;4.03;;;15.70;99.90;;;;;;5027645;28;20064;-76
2023/09/04 07:16:46;;;;;;;7.43;4.45;;;15.70;99.90;;;;;;5031330;28;20095;-76
2023/09/04 07:19:12;;;;;;;5.30;3.88;;;15.70;99.90;;;;;;5029485;28;20121;-77
2023/09/04 07:21:40;;;;;;;5.53;4.22;;;15.90;99.90;;;;;;5031209;28;20021;-76
2023/09/04 07:24:06;;;;;;;11.35;4.63;;;16.10;99.90;;;;;;5028584;28;21309;-76
2023/09/04 07:26:31;;;;;;;5.60;4.10;;;16.40;99.90;;;;;;5028747;28;20050;-76
2023/09/04 07:28:57;;;;;;;5.22;4.10;;;16.60;99.90;;;;;;5017512;28;20052;-77
2023/09/04 07:31:23;;;;;;;4.60;3.97;;;16.80;99.90;;;;;;5023946;28;20506;-77
2023/09/04 07:33:50;;;;;;;4.70;4.13;;;17.00;99.90;;;;;;5025696;28;20030;-77
2023/09/04 07:36:16;;;;;;;7.38;3.97;;;17.10;99.90;;;;;;5025951;28;20029;-77
2023/09/04 07:38:43;;;;;;;4.82;3.85;;;17.10;99.90;;;;;;5028051;28;20033;-77
2023/09/04 07:41:09;;;;;;;8.52;3.70;;;17.20;99.90;;;;;;5029473;28;20044;-76
2023/09/04 07:43:34;;;;;;;6.35;3.28;;;17.00;99.90;;;;;;5028442;28;20441;-76
2023/09/04 07:46:02;;;;;;;5.95;3.88;;;17.00;99.90;;;;;;5029135;28;20040;-77
2023/09/04 07:48:28;;;;;;;5.65;3.13;;;17.10;99.90;;;;;;5024359;28;20057;-76
2023/09/04 07:50:53;;;;;;;7.50;3.55;;;17.30;99.90;;;;;;5022449;28;20057;-77
2023/09/04 07:53:20;;;;;;;6.05;4.38;;;17.40;99.90;;;;;;5028191;28;20029;-76
2023/09/04 07:55:46;;;;;;;5.18;4.68;;;17.30;99.90;;;;;;5030361;28;20037;-76
2023/09/04 07:58:12;;;;;;;6.25;3.60;;;17.10;99.90;;;;;;5028841;28;20448;-77
2023/09/04 08:00:51;;;;;;;7.22;4.53;;;17.00;99.90;;;;;;5031125;28;20109;-77
2023/09/04 08:03:17;;;;;;;7.32;3.72;;;16.70;99.90;;;;;;5027546;28;20059;-76
2023/09/04 08:05:44;;;;;;;8.25;3.50;;;16.70;99.90;;;;;;5032251;28;20026;-76
2023/09/04 08:08:10;;;;;;;5.60;3.75;;;16.80;99.90;;;;;;5028926;28;20074;-76
2023/09/04 08:10:43;;;;;;;4.78;3.33;;;16.90;99.90;;;;;;5030043;28;20108;-76
2023/09/04 08:13:14;;;;;;;;;;;17.20;99.90;;;;;;5031445;28;20033;-76
2023/09/04 08:15:40;;;;;;;5.43;4.07;;;17.50;99.90;;;;;;5031728;28;19949;-77
2023/09/04 08:18:07;;;;;;;5.00;3.85;;;17.30;99.90;;;;;;5030808;28;20021;-76
2023/09/04 08:20:33;;;;;;;4.97;3.55;;;17.40;99.90;;;;;;5027237;28;20086;-76
2023/09/04 08:22:58;;;;;;;9.48;4.50;;;17.40;99.90;;;;;;5032308;28;20014;-77
2023/09/04 08:25:24;;;;;;;5.88;4.07;;;17.30;99.90;;;;;;5029999;28;20018;-77
2023/09/04 08:27:50;;;;;;;5.47;4.28;;;17.30;99.90;;;;;;5032002;28;20040;-76
2023/09/04 08:30:15;;;;;;;7.70;4.43;;;17.40;99.90;;;;;;5032016;28;20096;-77
2023/09/04 08:32:41;;;;;;;4.18;3.85;;;17.40;99.90;;;;;;5032285;28;20034;-76
2023/09/04 08:35:07;;;;;;;9.13;5.57;;;17.30;99.90;;;;;;5029580;28;20041;-77
2023/09/04 08:37:33;;;;;;;10.13;5.32;;;17.30;99.90;;;;;;5030500;28;20042;-76
2023/09/04 08:39:58;;;;;;;9.25;5.20;;;17.30;99.90;;;;;;5031813;28;20029;-76
2023/09/04 08:42:24;;;;;;;7.15;5.65;;;17.30;99.90;;;;;;5028452;28;20029;-76
2023/09/04 08:44:50;;;;;;;6.07;4.68;;;17.30;99.90;;;;;;5034464;28;20063;-76
2023/09/04 08:47:19;;;;;;;11.98;6.60;;;17.50;99.90;;;;;;5032253;28;20385;-76
2023/09/04 08:49:45;;;;;;;7.20;5.20;;;17.40;99.90;;;;;;5016371;28;20022;-77
2023/09/04 08:52:12;;;;;;;9.13;6.53;;;17.40;99.90;;;;;;5026771;28;20489;-77
2023/09/04 08:54:38;;;;;;;12.60;6.22;;;17.40;99.90;;;;;;5026883;28;20030;-77
2023/09/04 08:57:04;;;;;;;7.03;5.68;;;17.40;98.90;;;;;;5026281;28;20074;-77
2023/09/04 08:59:29;;;;;;;8.43;4.95;;;17.50;99.10;;;;;;5027694;28;20036;-77
2023/09/04 09:01:56;;;;;;;6.25;5.00;;;17.70;95.90;;;;;;5029039;28;20246;-77
2023/09/04 09:04:22;;;;;;;7.68;5.10;;;17.70;95.40;;;;;;5033129;28;20029;-77
2023/09/04 09:06:52;;;;;;;15.48;5.75;;;17.80;96.20;;;;;;5029887;28;20026;-77
2023/09/04 09:09:20;;;;;;;8.93;5.28;;;17.70;95.20;;;;;;5039458;28;20026;-77
2023/09/04 09:11:46;;;;;;;9.05;6.18;;;17.60;96.30;;;;;;5039949;28;20081;-77
2023/09/04 09:14:12;;;;;;;8.25;5.90;;;17.50;97.20;;;;;;5041888;28;20029;-77
2023/09/04 09:16:38;;;;;;;9.93;6.82;;;17.50;99.00;;;;;;5041050;28;20043;-77
2023/09/04 09:19:03;;;;;;;9.25;7.18;;;17.50;98.10;;;;;;5042639;28;20423;-77
2023/09/04 09:21:33;;;;;;;13.48;6.72;;;17.70;97.20;;;;;;5038477;28;20044;-77
2023/09/04 09:24:25;;;;;;;11.88;6.70;;;17.80;95.90;;;;;;5039840;28;20039;-77
2023/09/04 09:26:51;;;;;;;8.23;6.80;;;18.00;92.70;;;;;;5026621;28;20120;-77
2023/09/04 09:29:20;;;;;;;9.40;7.63;;;18.20;92.70;;;;;;5041158;28;20154;-77
2023/09/04 09:31:46;;;;;;;9.05;6.40;;;18.50;85.80;;;;;;5036946;28;20025;-77
2023/09/04 09:34:12;;;;;;;11.93;8.15;;;18.50;86.90;;;;;;5042581;28;20054;-77
2023/09/04 09:36:38;;;;;;;9.60;6.85;;;18.40;88.30;;;;;;5032033;28;20049;-77
2023/09/04 09:39:05;;;;;;;12.80;7.75;;;18.10;85.80;;;;;;5044893;28;20037;-77
2023/09/04 09:41:31;;;;;;;15.63;8.88;;;17.90;86.20;;;;;;5033678;28;20420;-77
2023/09/04 09:44:04;;;;;;;11.38;7.22;;;17.80;88.50;;;;;;5024643;28;20038;-77
2023/09/04 09:46:31;;;;;;;11.15;6.97;;;18.10;87.30;;;;;;5040280;28;20028;-77
2023/09/04 09:48:58;;;;;;;13.50;6.32;;;18.50;87.10;;;;;;5027424;28;20467;-77
2023/09/04 09:51:24;;;;;;;12.38;6.63;;;18.90;83.30;;;;;;5027775;28;20435;-77
2023/09/04 09:53:51;;;;;;;9.00;6.05;;;19.20;81.60;;;;;;5040090;28;20134;-77
2023/09/04 09:56:18;;;;;;;12.02;7.13;;;19.30;79.30;;;;;;5035148;28;20025;-77
2023/09/04 09:58:45;;;;;;;15.23;6.75;;;19.30;79.40;;;;;;5030350;28;20018;-77
2023/09/04 10:01:16;;;;;;;9.07;6.55;;;18.80;78.70;;;;;;5032047;28;20030;-77
2023/09/04 10:03:43;;;;;;;16.98;6.90;;;18.70;80.70;;;;;;5032246;28;20524;-77
2023/09/04 10:06:14;;;;;;;11.25;7.22;;;18.60;81.60;;;;;;5047258;28;20079;-76
2023/09/04 10:08:42;;;;;;;13.50;7.45;;;18.70;85.20;;;;;;5032171;28;20031;-77
2023/09/04 10:11:11;;;;;;;9.35;8.10;;;18.70;82.10;;;;;;5031811;28;20428;-77
2023/09/04 10:13:49;;;;;;;8.82;6.72;;;18.80;79.90;;;;;;5032156;28;20440;-77
2023/09/04 10:16:18;;;;;;;9.35;7.38;;;19.00;81.40;;;;;;5030887;28;20014;-77
2023/09/04 10:18:46;;;;;;;13.27;8.23;;;19.20;81.60;;;;;;5030485;28;20049;-77
2023/09/04 10:21:16;;;;;;;10.77;7.03;;;19.40;78.70;;;;;;5039028;28;20096;-77
2023/09/04 10:23:49;;;;;;;11.15;6.82;;;19.60;78.20;;;;;;5051100;28;20049;-77
2023/09/04 10:26:23;;;;;;;9.70;7.03;;;19.70;77.20;;;;;;5041654;28;20489;-77
2023/09/04 10:29:04;;;;;;;11.10;6.45;;;20.00;78.10;;;;;;5031852;28;20014;-76
2023/09/04 10:31:33;;;;;;;9.88;6.80;;;20.10;75.80;;;;;;5042622;28;20017;-77
2023/09/04 10:34:00;;;;;;;8.65;7.03;;;20.20;74.70;;;;;;5043564;28;20030;-76
2023/09/04 10:36:29;;;;;;;12.23;6.15;;;20.10;75.00;;;;;;5044036;28;20417;-76
2023/09/04 10:38:56;;;;;;;11.82;6.35;;;20.00;70.60;;;;;;5036541;28;20382;-77
2023/09/04 10:41:22;;;;;;;9.70;6.80;;;20.10;70.10;;;;;;5049869;28;20017;-77
2023/09/04 10:43:47;;;;;;;12.20;7.05;;;20.20;70.40;;;;;;5050136;28;20020;-76
2023/09/04 10:46:14;;;;;;;8.68;6.53;;;20.10;71.20;;;;;;5037009;28;20482;-77
2023/09/04 10:48:43;;;;;;;10.00;6.60;;;19.80;71.80;;;;;;5038727;28;20421;-77
2023/09/04 10:51:28;;;;;;;10.93;7.10;;;19.30;73.90;;;;;;5037619;28;20029;-76
2023/09/04 10:53:54;;;;;;;8.98;6.75;;;19.10;75.80;;;;;;5040571;28;20033;-77
2023/09/04 10:56:20;;;;;;;8.48;6.57;;;19.00;76.20;;;;;;5029068;28;20038;-76
2023/09/04 10:59:03;;;;;;;11.40;7.43;;;18.90;78.80;;;;;;5023367;28;20030;-76
2023/09/04 11:01:36;;;;;;;8.73;6.88;;;19.20;77.90;;;;;;5027551;28;20026;-77
2023/09/04 11:04:03;;;;;;;11.27;7.47;;;19.60;77.90;;;;;;5030413;28;20025;-76
2023/09/04 11:06:32;;;;;;;8.20;6.60;;;19.80;77.50;;;;;;5018248;28;20120;-77
2023/09/04 11:09:02;;;;;;;12.30;6.32;;;20.10;74.20;;;;;;5031260;28;20400;-77
2023/09/04 11:11:28;;;;;;;14.52;6.68;;;19.90;70.60;;;;;;5031153;28;20033;-77
2023/09/04 11:14:02;;;;;;;7.97;6.80;;;19.60;70.80;;;;;;5029817;28;20033;-77
2023/09/04 11:16:38;;;;;;;9.25;5.53;;;19.80;72.80;;;;;;5031277;28;20486;-77
2023/09/04 11:19:10;;;;;;;5.47;4.28;;;20.00;73.60;;;;;;5031127;28;20017;-77
2023/09/04 11:21:38;;;;;;;7.65;6.07;;;20.10;68.30;;;;;;5031144;28;20021;-76
2023/09/04 11:24:04;;;;;;;6.55;4.95;;;20.30;67.30;;;;;;5029577;28;20108;-77
2023/09/04 11:26:31;;;;;;;6.68;3.55;;;20.50;68.90;;;;;;5029370;28;20104;-77
2023/09/04 11:29:01;;;;;;;5.70;3.80;;;20.70;70.80;;;;;;5031143;28;20085;-78
2023/09/04 11:31:28;;;;;;;9.15;4.18;;;20.40;67.30;;;;;;5029692;28;20596;-76
2023/09/04 11:33:55;;;;;;;7.72;3.42;;;20.10;68.40;;;;;;5030740;28;20405;-77
2023/09/04 11:36:22;;;;;;;5.38;3.72;;;19.70;68.90;;;;;;5029451;28;20380;-77
2023/09/04 11:38:51;;;;;;;7.20;4.20;;;19.40;67.40;;;;;;5029005;28;20332;-77
2023/09/04 11:41:18;;;;;;;5.13;3.35;;;19.30;67.80;;;;;;5029499;28;20530;-76
2023/09/04 11:43:44;;;;;;;7.72;4.00;;;19.60;68.40;;;;;;5030380;28;20098;-76
2023/09/04 11:46:11;;;;;;;6.70;4.28;;;19.70;66.90;;;;;;5043212;28;20485;-76
2023/09/04 11:48:37;;;;;;;5.60;3.10;;;20.00;66.80;;;;;;5011065;28;20021;-77
2023/09/04 11:51:09;;;;;;;5.22;3.50;;;20.30;65.20;;;;;;5022381;28;20022;-76
2023/09/04 11:53:35;;;;;;;6.90;3.45;;;20.70;65.00;;;;;;5029244;28;20121;-76
2023/09/04 11:56:03;;;;;;;4.05;3.25;;;20.70;63.40;;;;;;5028729;28;20120;-77
2023/09/04 11:58:29;;;;;;;4.00;2.92;;;20.80;64.70;;;;;;5030392;28;20104;-77
2023/09/04 12:00:55;;;;;;;4.47;3.22;;;20.90;64.40;;;;;;5043706;28;20082;-78
2023/09/04 12:03:20;;;;;;;3.53;2.83;;;21.00;63.70;;;;;;5042877;28;20420;-78
2023/09/04 12:05:51;;;;;;;3.88;2.63;;;20.90;62.40;;;;;;5029118;28;20076;-77
2023/09/04 12:08:17;;;;;;;3.95;2.35;;;20.90;62.90;;;;;;5037901;28;20065;-76
2023/09/04 12:10:43;;;;;;;7.63;3.13;;;20.60;62.60;;;;;;5047850;28;20028;-77
2023/09/04 12:13:09;;;;;;;4.38;2.47;;;20.30;62.20;;;;;;5030053;28;20105;-77
2023/09/04 12:15:34;;;;;;;2.78;2.50;;;20.10;62.50;;;;;;5030243;28;20029;-77
2023/09/04 12:18:05;;;;;;;6.15;2.58;;;19.90;62.10;;;;;;5037196;28;20025;-76
2023/09/04 12:20:35;;;;;;;4.18;2.95;;;20.20;62.90;;;;;;5046530;28;20040;-76
2023/09/04 12:23:01;;;;;;;9.57;3.20;;;20.40;63.40;;;;;;5038006;28;20017;-77
2023/09/04 12:25:35;;;;;;;4.90;3.05;;;20.50;59.50;;;;;;5035363;28;20052;-77
2023/09/04 12:28:03;;;;;;;2.72;2.53;;;20.70;58.70;;;;;;5047665;28;20033;-77
2023/09/04 12:30:29;;;;;;;3.50;2.50;;;20.90;59.50;;;;;;5045859;28;20013;-78
2023/09/04 12:32:57;;;;;;;5.50;2.30;;;21.10;59.90;;;;;;5037613;28;20029;-76
2023/09/04 12:35:23;;;;;;;3.80;1.98;;;21.20;60.00;;;;;;5043386;28;20060;-77
2023/09/04 12:37:53;;;;;;;4.07;1.98;;;21.00;60.00;;;;;;5047358;28;20129;-77
2023/09/04 12:40:19;;;;;;;3.75;2.22;;;20.80;58.40;;;;;;5045742;28;20021;-76
2023/09/04 12:42:44;;;;;;;4.05;2.10;;;20.80;58.50;;;;;;5038220;28;20021;-76
2023/09/04 12:45:10;;;;;;;3.05;1.60;;;20.60;57.50;;;;;;5029648;28;20073;-76